Terminal Aerodrome Forecast
Issued by NWS New Orleans/Baton Rouge, LA

Home | Current Version | Previous Version | Text Only | Print | Product List | Glossary On
Versions: 1 2 3 4 5 6 7 8 9 10 11 12
349
FTUS44 KLIX 261136
TAFBTR
TAF
KBTR 261136Z 2612/2712 04004KT P6SM SKC
     FM261600 09005KT P6SM FEW030 SCT060
     FM262100 09004KT P6SM BKN045 BKN200 PROB30 2621/2624 4SM TSRA
      OVC025CB
     FM270000 VRB03KT P6SM SCT250=

USA.gov is the U.S. government's official web portal to all federal, state and local government web resources and services.